Time;durP1;ratioP1;P1;durP2;ratioP2;P2;SDS_P1;SDS_P2;PMS_P1;PMS_P2;Temp;Humidity;BMP_temperature;BMP_pressure;BME280_temperature;BME280_humidity;BME280_pressure;Samples;Min_cycle;Max_cycle;Signal;HPM_P1;HPM_P2
2022/03/15 00:00:29;;;;;;;22.05;12.40;;;;;;;;;;5012304;28;20215;-48
2022/03/15 00:02:58;;;;;;;28.17;12.50;;;;;;;;;;5012372;28;20180;-47
2022/03/15 00:05:26;;;;;;;28.42;11.50;;;;;;;;;;5012338;28;20177;-47
2022/03/15 00:07:52;;;;;;;25.90;12.70;;;;;;;;;;4994775;28;20730;-47
2022/03/15 00:10:18;;;;;;;28.90;13.37;;;;;;;;;;5012137;28;20647;-47
2022/03/15 00:12:45;;;;;;;29.50;16.27;;;;;;;;;;5012181;28;20466;-47
2022/03/15 00:15:11;;;;;;;28.65;15.13;;;;;;;;;;5012390;28;21141;-48
2022/03/15 00:17:38;;;;;;;27.42;14.63;;;;;;;;;;5012326;28;20180;-48
2022/03/15 00:20:05;;;;;;;20.15;12.70;;;;;;;;;;5011925;28;20160;-48
2022/03/15 00:22:38;;;;;;;26.00;13.05;;;;;;;;;;5012087;28;20168;-48
2022/03/15 00:25:07;;;;;;;25.98;15.30;;;;;;;;;;5012262;28;20171;-47
2022/03/15 00:27:33;;;;;;;26.50;15.07;;;;;;;;;;5012170;28;20247;-48
2022/03/15 00:30:00;;;;;;;27.92;14.15;;;;;;;;;;5011928;28;20414;-48
2022/03/15 00:32:26;;;;;;;15.35;9.57;;;;;;;;;;5011374;28;20200;-51
2022/03/15 00:34:52;;;;;;;17.63;10.57;;;;;;;;;;5002066;28;20201;-49
2022/03/15 00:37:19;;;;;;;18.77;10.27;;;;;;;;;;4992606;28;20888;-50
2022/03/15 00:39:45;;;;;;;24.65;10.35;;;;;;;;;;5008694;28;20179;-48
2022/03/15 00:42:11;;;;;;;16.60;10.43;;;;;;;;;;5011966;28;20186;-49
2022/03/15 00:44:37;;;;;;;16.37;10.00;;;;;;;;;;5012072;28;20175;-49
2022/03/15 00:47:03;;;;;;;22.77;10.67;;;;;;;;;;5011998;28;20549;-51
2022/03/15 00:49:29;;;;;;;23.07;11.47;;;;;;;;;;5011700;28;20916;-48
2022/03/15 00:51:55;;;;;;;19.33;10.30;;;;;;;;;;4995331;28;20435;-50
2022/03/15 00:54:22;;;;;;;18.17;10.32;;;;;;;;;;4992268;28;20522;-51
2022/03/15 00:56:48;;;;;;;28.25;10.77;;;;;;;;;;4992349;28;20176;-51
2022/03/15 00:59:15;;;;;;;18.17;11.85;;;;;;;;;;4992214;28;20248;-48
2022/03/15 01:01:41;;;;;;;24.63;12.57;;;;;;;;;;4992041;28;20197;-49
2022/03/15 01:04:07;;;;;;;17.35;11.13;;;;;;;;;;4992071;28;20429;-49
2022/03/15 01:06:34;;;;;;;21.27;9.63;;;;;;;;;;4992274;28;20226;-48
2022/03/15 01:09:02;;;;;;;17.50;9.70;;;;;;;;;;4992182;28;20442;-49
2022/03/15 01:11:28;;;;;;;22.70;11.82;;;;;;;;;;4991932;28;20435;-49
2022/03/15 01:13:54;;;;;;;27.20;12.50;;;;;;;;;;4992197;28;20198;-50
2022/03/15 01:16:20;;;;;;;25.50;11.90;;;;;;;;;;4992135;28;20402;-49
2022/03/15 01:18:46;;;;;;;17.20;10.10;;;;;;;;;;4992068;28;20393;-49
2022/03/15 01:21:13;;;;;;;18.08;10.55;;;;;;;;;;4991827;28;20836;-49
2022/03/15 01:23:39;;;;;;;27.67;11.27;;;;;;;;;;4992125;28;20227;-51
2022/03/15 01:26:05;;;;;;;13.50;9.30;;;;;;;;;;4992092;28;20173;-50
2022/03/15 01:28:31;;;;;;;22.13;10.07;;;;;;;;;;5009110;28;20407;-50
2022/03/15 01:30:57;;;;;;;22.48;10.75;;;;;;;;;;5011325;28;20426;-50
2022/03/15 01:36:27;;;;;;;25.48;11.32;;;;;;;;;;5011679;28;20175;-48
2022/03/15 01:38:53;;;;;;;17.58;10.20;;;;;;;;;;5013761;28;20663;-48
2022/03/15 01:41:22;;;;;;;14.10;9.55;;;;;;;;;;5014636;28;20274;-48
2022/03/15 01:43:48;;;;;;;19.60;10.85;;;;;;;;;;5014134;28;20667;-50
2022/03/15 01:46:14;;;;;;;23.77;10.27;;;;;;;;;;5014894;28;20176;-50
2022/03/15 01:48:40;;;;;;;16.50;10.10;;;;;;;;;;5014749;28;20419;-46
2022/03/15 01:51:07;;;;;;;18.27;10.82;;;;;;;;;;5014387;28;20784;-46
2022/03/15 01:53:34;;;;;;;17.75;10.82;;;;;;;;;;5006480;28;20568;-46
2022/03/15 01:56:00;;;;;;;16.52;11.15;;;;;;;;;;4995500;28;20239;-47
2022/03/15 01:58:27;;;;;;;21.38;12.73;;;;;;;;;;4997336;28;20180;-49
2022/03/15 02:00:53;;;;;;;27.33;13.05;;;;;;;;;;5014258;28;20665;-48
2022/03/15 02:03:19;;;;;;;22.63;12.07;;;;;;;;;;5013899;28;20652;-49
2022/03/15 02:05:45;;;;;;;14.57;11.45;;;;;;;;;;5014200;28;20181;-49
2022/03/15 02:08:17;;;;;;;19.08;9.77;;;;;;;;;;5014262;28;20179;-49
2022/03/15 02:10:43;;;;;;;19.35;11.98;;;;;;;;;;5014307;28;20196;-49
2022/03/15 02:13:10;;;;;;;19.45;12.13;;;;;;;;;;5014389;28;20198;-48
2022/03/15 02:15:36;;;;;;;20.05;12.02;;;;;;;;;;5014190;28;20168;-49
2022/03/15 02:18:03;;;;;;;26.35;13.32;;;;;;;;;;5014447;28;20175;-50
2022/03/15 02:20:30;;;;;;;23.88;14.32;;;;;;;;;;5013878;28;20250;-50
2022/03/15 02:22:57;;;;;;;22.23;13.77;;;;;;;;;;5014007;28;20236;-49
2022/03/15 02:25:23;;;;;;;21.30;13.53;;;;;;;;;;5014337;28;20161;-48
2022/03/15 02:27:48;;;;;;;30.53;13.83;;;;;;;;;;5014028;28;20430;-49
2022/03/15 02:30:14;;;;;;;16.27;11.57;;;;;;;;;;5013793;28;20486;-48
2022/03/15 02:32:42;;;;;;;20.63;11.40;;;;;;;;;;5013889;28;20400;-49
2022/03/15 02:35:08;;;;;;;15.88;10.60;;;;;;;;;;5014051;28;20542;-50
2022/03/15 02:37:34;;;;;;;14.90;9.75;;;;;;;;;;5013965;28;20548;-49
2022/03/15 02:40:00;;;;;;;15.73;9.93;;;;;;;;;;5013753;28;20255;-50
2022/03/15 02:42:26;;;;;;;13.50;8.98;;;;;;;;;;5013843;28;20184;-49
2022/03/15 02:44:52;;;;;;;15.55;9.73;;;;;;;;;;5013703;28;20195;-50
2022/03/15 02:47:18;;;;;;;14.10;9.90;;;;;;;;;;5013900;28;20657;-49
2022/03/15 02:49:44;;;;;;;19.13;9.20;;;;;;;;;;5012401;28;20430;-50
2022/03/15 02:52:10;;;;;;;17.40;8.67;;;;;;;;;;5013565;28;20428;-48
2022/03/15 02:54:40;;;;;;;12.47;8.90;;;;;;;;;;5013562;28;20455;-48
2022/03/15 02:57:10;;;;;;;15.88;8.55;;;;;;;;;;5013694;28;20896;-48
2022/03/15 02:59:36;;;;;;;14.52;9.25;;;;;;;;;;5013167;28;20647;-48
2022/03/15 03:02:03;;;;;;;15.55;9.15;;;;;;;;;;5013075;28;20204;-47
2022/03/15 03:04:29;;;;;;;13.40;9.10;;;;;;;;;;5013622;28;20603;-50
2022/03/15 03:06:55;;;;;;;17.13;9.33;;;;;;;;;;5013278;28;20176;-48
2022/03/15 03:09:21;;;;;;;16.43;9.37;;;;;;;;;;5013255;28;20443;-48
2022/03/15 03:11:47;;;;;;;20.20;10.60;;;;;;;;;;5013157;28;20451;-50
2022/03/15 03:14:13;;;;;;;17.08;9.32;;;;;;;;;;5013242;28;20446;-50
2022/03/15 03:16:40;;;;;;;15.32;7.75;;;;;;;;;;5013125;28;20655;-48
2022/03/15 03:19:07;;;;;;;15.48;9.40;;;;;;;;;;5013297;28;20255;-50
2022/03/15 03:21:34;;;;;;;14.77;9.30;;;;;;;;;;5012824;28;20275;-50
2022/03/15 03:24:03;;;;;;;16.58;10.32;;;;;;;;;;5013128;28;20168;-48
2022/03/15 03:26:29;;;;;;;15.10;9.95;;;;;;;;;;5012996;28;20172;-49
2022/03/15 03:28:55;;;;;;;16.23;9.67;;;;;;;;;;5013039;28;20271;-49
2022/03/15 03:31:21;;;;;;;14.50;9.40;;;;;;;;;;5012655;28;20962;-49
2022/03/15 03:33:47;;;;;;;13.90;9.67;;;;;;;;;;5013196;28;20836;-49
2022/03/15 03:36:12;;;;;;;21.83;9.07;;;;;;;;;;5012727;28;20416;-50
2022/03/15 03:38:39;;;;;;;14.50;9.53;;;;;;;;;;5012998;28;20406;-49
2022/03/15 03:41:06;;;;;;;12.43;8.90;;;;;;;;;;5012416;28;20427;-48
2022/03/15 03:43:32;;;;;;;15.95;9.20;;;;;;;;;;5012753;28;20180;-49
2022/03/15 03:45:58;;;;;;;18.37;9.57;;;;;;;;;;5012648;28;20194;-49
2022/03/15 03:48:25;;;;;;;14.55;9.70;;;;;;;;;;5012630;28;20412;-49
2022/03/15 03:50:51;;;;;;;19.30;9.70;;;;;;;;;;5012319;28;20208;-49
2022/03/15 03:53:18;;;;;;;15.38;10.00;;;;;;;;;;5012669;28;20300;-48
2022/03/15 03:55:45;;;;;;;13.47;8.67;;;;;;;;;;5012462;28;20172;-48
2022/03/15 03:58:11;;;;;;;15.13;9.95;;;;;;;;;;5012448;28;20427;-48
2022/03/15 04:00:37;;;;;;;12.05;7.78;;;;;;;;;;5011860;28;20606;-49
2022/03/15 04:03:03;;;;;;;12.93;9.07;;;;;;;;;;5012245;28;20196;-49
2022/03/15 04:05:30;;;;;;;9.60;7.63;;;;;;;;;;5012216;28;20188;-48
2022/03/15 04:07:59;;;;;;;12.82;9.00;;;;;;;;;;5012485;28;20399;-49
2022/03/15 04:10:26;;;;;;;18.10;10.20;;;;;;;;;;5011988;28;20199;-49
2022/03/15 04:12:54;;;;;;;26.33;10.45;;;;;;;;;;5012275;28;20187;-49
2022/03/15 04:15:20;;;;;;;22.63;9.13;;;;;;;;;;5012176;28;20177;-49
2022/03/15 04:17:46;;;;;;;18.92;8.98;;;;;;;;;;5012356;28;20157;-49
2022/03/15 04:20:12;;;;;;;20.93;7.60;;;;;;;;;;5012125;28;20190;-48
2022/03/15 04:22:38;;;;;;;17.63;9.88;;;;;;;;;;5010866;28;20853;-49
2022/03/15 04:25:04;;;;;;;24.10;9.80;;;;;;;;;;5008760;28;20203;-47
2022/03/15 04:27:30;;;;;;;18.45;10.13;;;;;;;;;;5011635;28;20419;-47
2022/03/15 04:29:56;;;;;;;16.80;9.60;;;;;;;;;;5012133;28;20172;-47
2022/03/15 04:32:22;;;;;;;24.53;9.73;;;;;;;;;;5011903;28;20258;-46
2022/03/15 04:34:48;;;;;;;14.43;9.60;;;;;;;;;;5012282;28;20462;-46
2022/03/15 04:37:14;;;;;;;16.17;9.07;;;;;;;;;;5011993;28;20186;-46
2022/03/15 04:39:40;;;;;;;15.02;10.15;;;;;;;;;;5011824;28;20403;-46
2022/03/15 04:42:07;;;;;;;17.57;8.33;;;;;;;;;;5008562;28;20559;-48
2022/03/15 04:44:33;;;;;;;16.98;9.60;;;;;;;;;;5011990;28;20423;-47
2022/03/15 04:46:59;;;;;;;17.80;9.37;;;;;;;;;;5011092;28;20173;-47
2022/03/15 04:49:25;;;;;;;16.58;8.18;;;;;;;;;;5011003;28;20423;-47
2022/03/15 04:51:51;;;;;;;13.93;8.03;;;;;;;;;;5011874;28;20211;-47
2022/03/15 04:54:17;;;;;;;12.55;8.13;;;;;;;;;;5011412;28;20455;-48
2022/03/15 04:56:43;;;;;;;15.80;8.60;;;;;;;;;;5005508;28;20187;-49
2022/03/15 04:59:09;;;;;;;12.23;6.65;;;;;;;;;;5008989;28;20419;-48
2022/03/15 05:01:35;;;;;;;14.57;7.20;;;;;;;;;;5011415;28;20247;-49
2022/03/15 05:04:01;;;;;;;11.33;7.47;;;;;;;;;;5011095;28;20872;-49
2022/03/15 05:06:27;;;;;;;15.93;8.20;;;;;;;;;;5003205;28;20408;-46
2022/03/15 05:08:53;;;;;;;10.73;8.00;;;;;;;;;;5001751;28;20184;-46
2022/03/15 05:11:20;;;;;;;17.60;7.97;;;;;;;;;;5001608;28;20440;-47
2022/03/15 05:13:47;;;;;;;13.30;7.20;;;;;;;;;;5013343;28;20516;-49
2022/03/15 05:16:18;;;;;;;12.55;7.35;;;;;;;;;;5013720;28;20596;-50
2022/03/15 05:18:45;;;;;;;18.60;7.70;;;;;;;;;;5014740;28;20202;-50
2022/03/15 05:21:16;;;;;;;15.63;7.63;;;;;;;;;;5014171;28;20581;-50
2022/03/15 05:23:42;;;;;;;13.02;7.70;;;;;;;;;;5014286;28;20423;-48
2022/03/15 05:26:08;;;;;;;14.87;7.97;;;;;;;;;;5008309;28;20180;-49
2022/03/15 05:28:34;;;;;;;12.60;7.53;;;;;;;;;;5014496;28;20422;-48
2022/03/15 05:31:00;;;;;;;16.70;7.53;;;;;;;;;;5013937;28;20446;-48
2022/03/15 05:33:28;;;;;;;12.03;8.20;;;;;;;;;;5009978;28;20496;-49
2022/03/15 05:35:54;;;;;;;11.73;7.38;;;;;;;;;;5011647;28;20802;-50
2022/03/15 05:38:20;;;;;;;15.90;7.60;;;;;;;;;;5014814;28;20614;-50
2022/03/15 05:40:46;;;;;;;17.20;7.23;;;;;;;;;;5013897;28;20215;-48
2022/03/15 05:43:12;;;;;;;12.83;7.43;;;;;;;;;;5010753;28;20482;-48
2022/03/15 05:45:38;;;;;;;13.18;6.85;;;;;;;;;;5014041;28;20412;-48
2022/03/15 05:48:04;;;;;;;14.07;7.80;;;;;;;;;;5011367;28;20180;-48
2022/03/15 05:50:31;;;;;;;17.02;8.50;;;;;;;;;;5003915;28;20192;-48
2022/03/15 05:52:57;;;;;;;12.15;8.40;;;;;;;;;;5013735;28;20235;-48
2022/03/15 05:55:23;;;;;;;13.70;8.70;;;;;;;;;;5013469;28;20181;-48
2022/03/15 05:57:49;;;;;;;18.60;10.50;;;;;;;;;;5009218;28;20565;-48
2022/03/15 06:00:16;;;;;;;24.93;14.03;;;;;;;;;;5000800;28;20236;-46
2022/03/15 06:02:42;;;;;;;29.13;14.73;;;;;;;;;;4994535;28;20420;-47
2022/03/15 06:05:10;;;;;;;28.25;15.10;;;;;;;;;;5012218;28;20271;-49
2022/03/15 06:07:43;;;;;;;26.92;14.27;;;;;;;;;;5013711;28;20180;-46
2022/03/15 06:10:09;;;;;;;32.30;12.30;;;;;;;;;;5013654;28;20164;-49
2022/03/15 06:12:35;;;;;;;22.17;11.90;;;;;;;;;;5014169;28;20617;-49
2022/03/15 06:15:01;;;;;;;18.90;10.60;;;;;;;;;;5014284;28;20232;-49
2022/03/15 06:17:27;;;;;;;19.20;10.40;;;;;;;;;;5007301;28;20407;-46
2022/03/15 06:19:53;;;;;;;16.43;9.03;;;;;;;;;;5016077;28;20399;-50
2022/03/15 06:22:19;;;;;;;18.70;9.30;;;;;;;;;;5012197;28;20955;-47
2022/03/15 06:24:45;;;;;;;13.63;8.90;;;;;;;;;;5003524;28;20416;-49
2022/03/15 06:27:11;;;;;;;14.40;9.03;;;;;;;;;;5012614;28;20173;-51
2022/03/15 06:29:37;;;;;;;14.97;8.53;;;;;;;;;;5013544;28;20634;-47
2022/03/15 06:32:03;;;;;;;11.67;7.50;;;;;;;;;;5013660;28;20439;-49
2022/03/15 06:34:29;;;;;;;16.50;7.97;;;;;;;;;;5013829;28;20524;-48
2022/03/15 06:36:54;;;;;;;14.50;8.20;;;;;;;;;;5013836;28;20498;-51
2022/03/15 06:39:20;;;;;;;25.93;8.80;;;;;;;;;;5004572;28;20423;-46
2022/03/15 06:41:46;;;;;;;16.37;8.63;;;;;;;;;;5006843;28;20938;-48
2022/03/15 06:44:12;;;;;;;15.80;8.43;;;;;;;;;;5012093;28;20947;-48
2022/03/15 06:46:38;;;;;;;15.53;8.20;;;;;;;;;;5014122;28;20502;-49
2022/03/15 06:49:05;;;;;;;16.97;9.70;;;;;;;;;;5014741;28;20449;-48
2022/03/15 06:51:31;;;;;;;16.40;9.32;;;;;;;;;;5013706;28;20486;-49
2022/03/15 06:53:57;;;;;;;16.13;8.57;;;;;;;;;;5013230;28;20540;-47
2022/03/15 06:56:23;;;;;;;16.63;10.00;;;;;;;;;;5013439;28;20404;-49
2022/03/15 06:58:50;;;;;;;18.80;9.90;;;;;;;;;;5013114;28;20911;-49
2022/03/15 07:01:16;;;;;;;18.15;10.07;;;;;;;;;;5012788;28;20839;-48
2022/03/15 07:03:42;;;;;;;22.10;10.23;;;;;;;;;;5012885;28;20180;-48
2022/03/15 07:06:08;;;;;;;22.70;9.70;;;;;;;;;;5012896;28;20958;-46
2022/03/15 07:08:34;;;;;;;15.80;10.40;;;;;;;;;;5012318;28;20423;-48
2022/03/15 07:11:00;;;;;;;20.70;9.40;;;;;;;;;;5010734;28;20463;-47
2022/03/15 07:13:26;;;;;;;20.90;9.77;;;;;;;;;;5012795;28;20498;-48
2022/03/15 07:15:52;;;;;;;19.53;9.67;;;;;;;;;;5011585;28;20399;-48
2022/03/15 07:18:19;;;;;;;18.10;9.23;;;;;;;;;;5003429;28;20400;-47
2022/03/15 07:20:45;;;;;;;16.80;10.10;;;;;;;;;;5012579;28;20497;-47
2022/03/15 07:23:11;;;;;;;19.07;9.90;;;;;;;;;;5012607;28;20404;-48
2022/03/15 07:25:37;;;;;;;15.43;10.20;;;;;;;;;;5013006;28;20402;-50
2022/03/15 07:28:03;;;;;;;17.50;9.60;;;;;;;;;;5013016;28;20460;-49
2022/03/15 07:30:29;;;;;;;16.43;9.23;;;;;;;;;;5011562;28;20810;-49
2022/03/15 07:32:55;;;;;;;16.13;9.10;;;;;;;;;;5013960;28;20922;-48
2022/03/15 07:35:22;;;;;;;17.33;9.47;;;;;;;;;;5008278;28;20979;-50
2022/03/15 07:37:53;;;;;;;13.87;8.57;;;;;;;;;;5007613;28;20422;-50
2022/03/15 07:40:19;;;;;;;16.70;9.00;;;;;;;;;;4989097;28;20517;-47
2022/03/15 07:42:46;;;;;;;19.33;9.97;;;;;;;;;;5012154;28;20507;-50
2022/03/15 07:45:12;;;;;;;16.40;9.73;;;;;;;;;;5012526;28;20777;-49
2022/03/15 07:47:38;;;;;;;20.40;9.17;;;;;;;;;;5012613;28;20406;-47
2022/03/15 07:50:05;;;;;;;19.53;8.87;;;;;;;;;;5012183;28;20446;-50
2022/03/15 07:52:31;;;;;;;14.47;9.83;;;;;;;;;;5012204;28;20415;-48
2022/03/15 07:54:57;;;;;;;16.73;9.70;;;;;;;;;;5012252;28;20463;-48
2022/03/15 07:57:23;;;;;;;15.97;9.00;;;;;;;;;;5012460;28;20774;-47
2022/03/15 07:59:48;;;;;;;13.10;9.40;;;;;;;;;;5011668;28;20421;-49
2022/03/15 08:02:15;;;;;;;20.60;9.10;;;;;;;;;;5012013;28;20860;-50
2022/03/15 08:04:42;;;;;;;15.90;9.57;;;;;;;;;;5012581;28;20399;-48
2022/03/15 08:07:08;;;;;;;14.47;8.80;;;;;;;;;;5012224;28;20420;-48
2022/03/15 08:09:35;;;;;;;11.97;8.77;;;;;;;;;;5011605;28;20957;-47
2022/03/15 08:12:01;;;;;;;14.67;8.30;;;;;;;;;;5011420;28;20442;-46
2022/03/15 08:14:27;;;;;;;17.20;8.50;;;;;;;;;;5012015;28;20507;-46
2022/03/15 08:16:53;;;;;;;14.87;8.37;;;;;;;;;;5012129;28;20835;-46
2022/03/15 08:19:19;;;;;;;16.17;8.27;;;;;;;;;;5011642;28;20417;-46
2022/03/15 08:21:45;;;;;;;11.77;8.30;;;;;;;;;;5011739;28;20423;-46
2022/03/15 08:24:11;;;;;;;18.50;8.07;;;;;;;;;;5012006;28;20465;-46
2022/03/15 08:26:38;;;;;;;16.53;8.80;;;;;;;;;;5011766;28;20413;-47
2022/03/15 08:29:05;;;;;;;13.60;7.90;;;;;;;;;;5011639;28;21031;-48
2022/03/15 08:31:31;;;;;;;18.20;8.37;;;;;;;;;;5010118;28;20441;-48
2022/03/15 08:33:57;;;;;;;15.03;7.37;;;;;;;;;;4982499;28;20455;-47
2022/03/15 08:36:23;;;;;;;9.87;7.00;;;;;;;;;;5003520;28;20440;-49
2022/03/15 08:38:50;;;;;;;12.83;8.80;;;;;;;;;;4997930;28;20402;-48
2022/03/15 08:41:16;;;;;;;12.13;7.43;;;;;;;;;;5008704;28;20434;-49
2022/03/15 08:43:42;;;;;;;10.57;7.93;;;;;;;;;;5007659;28;20432;-48
2022/03/15 08:46:08;;;;;;;10.40;7.80;;;;;;;;;;5013313;28;20433;-49
2022/03/15 08:48:34;;;;;;;15.27;7.43;;;;;;;;;;5008421;28;20452;-48
2022/03/15 08:51:01;;;;;;;11.33;7.37;;;;;;;;;;5009144;28;20524;-48
2022/03/15 08:53:27;;;;;;;9.33;6.50;;;;;;;;;;5015415;28;20457;-48
2022/03/15 08:55:53;;;;;;;8.70;7.80;;;;;;;;;;5014937;28;20418;-47
2022/03/15 08:58:20;;;;;;;10.20;6.60;;;;;;;;;;5015565;28;20480;-47
2022/03/15 09:00:46;;;;;;;11.37;7.17;;;;;;;;;;5015002;28;20505;-48
2022/03/15 09:03:12;;;;;;;10.13;8.03;;;;;;;;;;5014708;28;20435;-50
2022/03/15 09:05:38;;;;;;;9.83;6.60;;;;;;;;;;5014239;28;20407;-50
2022/03/15 09:08:04;;;;;;;15.33;7.67;;;;;;;;;;5014248;28;20483;-48
2022/03/15 09:10:30;;;;;;;13.20;8.40;;;;;;;;;;5013096;28;20969;-49
2022/03/15 09:12:56;;;;;;;9.33;6.70;;;;;;;;;;5014103;28;20407;-49
2022/03/15 09:15:23;;;;;;;12.60;8.00;;;;;;;;;;5015325;28;20557;-48
2022/03/15 09:17:49;;;;;;;11.50;6.97;;;;;;;;;;5015309;28;20461;-47
2022/03/15 09:20:15;;;;;;;14.23;7.90;;;;;;;;;;5015055;28;20406;-47
2022/03/15 09:22:41;;;;;;;11.83;6.50;;;;;;;;;;5014738;28;20423;-47
2022/03/15 09:25:08;;;;;;;11.20;6.53;;;;;;;;;;5015242;28;20407;-47
2022/03/15 09:27:34;;;;;;;12.70;6.57;;;;;;;;;;5014881;28;20795;-47
2022/03/15 09:30:00;;;;;;;12.17;6.87;;;;;;;;;;5014588;28;20419;-46
2022/03/15 09:32:26;;;;;;;10.00;6.53;;;;;;;;;;5012351;28;20530;-48
2022/03/15 09:34:53;;;;;;;9.60;6.53;;;;;;;;;;5013834;28;20481;-46
2022/03/15 09:37:19;;;;;;;8.00;7.20;;;;;;;;;;5014265;28;20412;-46
2022/03/15 09:39:45;;;;;;;17.37;6.60;;;;;;;;;;5014397;28;20549;-47
2022/03/15 09:42:11;;;;;;;9.60;6.40;;;;;;;;;;5007312;28;20963;-47
2022/03/15 09:44:39;;;;;;;11.17;7.17;;;;;;;;;;5012192;28;20418;-50
2022/03/15 09:47:06;;;;;;;6.70;6.00;;;;;;;;;;5014397;28;20422;-47
2022/03/15 09:49:33;;;;;;;9.27;6.90;;;;;;;;;;5013230;28;20494;-47
2022/03/15 09:51:59;;;;;;;8.50;6.30;;;;;;;;;;5014517;28;20522;-50
2022/03/15 09:54:26;;;;;;;8.53;5.57;;;;;;;;;;5010141;28;20461;-47
2022/03/15 09:56:53;;;;;;;10.60;5.20;;;;;;;;;;4995256;28;20900;-49
2022/03/15 09:59:20;;;;;;;12.33;5.90;;;;;;;;;;4994373;28;20404;-49
2022/03/15 10:01:50;;;;;;;9.20;5.30;;;;;;;;;;5012709;28;20785;-49
2022/03/15 10:04:16;;;;;;;12.63;6.33;;;;;;;;;;5014361;28;20817;-48
2022/03/15 10:06:42;;;;;;;11.03;5.83;;;;;;;;;;5014380;28;20490;-48
2022/03/15 10:09:08;;;;;;;10.20;5.60;;;;;;;;;;5014375;28;20410;-50
2022/03/15 10:11:35;;;;;;;9.87;5.00;;;;;;;;;;5006394;28;20434;-53
2022/03/15 10:14:01;;;;;;;5.80;4.27;;;;;;;;;;5005984;28;20454;-51
2022/03/15 10:16:32;;;;;;;10.17;6.20;;;;;;;;;;5005547;28;20441;-49
2022/03/15 10:18:58;;;;;;;7.57;4.83;;;;;;;;;;5004550;28;20403;-48
2022/03/15 10:21:25;;;;;;;12.30;6.07;;;;;;;;;;5003877;28;20427;-49
2022/03/15 10:23:58;;;;;;;12.40;6.53;;;;;;;;;;5004140;28;20931;-49
2022/03/15 10:26:28;;;;;;;13.80;7.17;;;;;;;;;;5004729;28;20419;-52
2022/03/15 10:28:56;;;;;;;7.63;5.37;;;;;;;;;;5004669;28;20406;-52
2022/03/15 10:31:23;;;;;;;13.67;6.53;;;;;;;;;;5004338;28;20431;-49
2022/03/15 10:33:53;;;;;;;14.17;6.37;;;;;;;;;;5004487;28;20455;-49
2022/03/15 10:36:21;;;;;;;16.60;5.90;;;;;;;;;;5004900;28;20422;-47
2022/03/15 10:38:48;;;;;;;8.87;6.57;;;;;;;;;;5003704;28;20422;-49
2022/03/15 10:41:15;;;;;;;16.17;8.20;;;;;;;;;;5003836;28;20437;-50
2022/03/15 10:43:41;;;;;;;9.10;6.07;;;;;;;;;;5004198;28;20933;-50
2022/03/15 10:46:09;;;;;;;14.50;6.03;;;;;;;;;;5004133;28;20481;-52
2022/03/15 10:48:36;;;;;;;16.43;5.97;;;;;;;;;;5000565;28;20502;-51
2022/03/15 10:51:28;;;;;;;7.50;5.30;;;;;;;;;;5004879;28;20434;-49
2022/03/15 10:54:00;;;;;;;13.70;6.43;;;;;;;;;;4999769;28;20470;-55
2022/03/15 10:56:26;;;;;;;7.30;5.60;;;;;;;;;;5004305;28;20539;-48
2022/03/15 10:58:54;;;;;;;8.50;5.87;;;;;;;;;;5004105;28;20403;-54
2022/03/15 11:01:20;;;;;;;9.80;5.73;;;;;;;;;;5004850;28;20423;-49
2022/03/15 11:03:57;;;;;;;8.60;6.03;;;;;;;;;;5003879;28;20442;-48
2022/03/15 11:06:32;;;;;;;12.63;5.97;;;;;;;;;;5003645;28;20408;-48
2022/03/15 11:08:59;;;;;;;9.90;5.40;;;;;;;;;;5004720;28;20939;-47
2022/03/15 11:11:28;;;;;;;12.83;6.00;;;;;;;;;;5002132;28;20435;-52
2022/03/15 11:14:02;;;;;;;10.60;5.07;;;;;;;;;;5005011;28;20465;-53
2022/03/15 11:16:30;;;;;;;12.10;5.23;;;;;;;;;;5004196;28;20593;-48
2022/03/15 11:18:56;;;;;;;7.27;4.83;;;;;;;;;;5004367;28;20403;-55
2022/03/15 11:21:22;;;;;;;11.83;5.83;;;;;;;;;;5004060;28;20415;-48
2022/03/15 11:23:49;;;;;;;7.67;4.80;;;;;;;;;;5005205;28;20408;-53
2022/03/15 11:26:17;;;;;;;12.10;5.27;;;;;;;;;;5004240;28;20413;-48
2022/03/15 11:28:45;;;;;;;6.73;4.77;;;;;;;;;;5004175;28;20482;-48
2022/03/15 11:31:10;;;;;;;9.93;6.17;;;;;;;;;;5001285;28;20439;-53
2022/03/15 11:33:37;;;;;;;7.50;5.20;;;;;;;;;;5001138;28;20521;-51
2022/03/15 11:36:04;;;;;;;10.53;5.17;;;;;;;;;;5001158;28;20408;-47
2022/03/15 11:38:31;;;;;;;8.73;4.73;;;;;;;;;;5000640;28;20404;-51
2022/03/15 11:40:57;;;;;;;7.57;5.30;;;;;;;;;;4984091;28;20451;-50
2022/03/15 11:43:33;;;;;;;6.87;4.27;;;;;;;;;;5000404;28;20522;-49
2022/03/15 11:45:59;;;;;;;6.83;4.77;;;;;;;;;;5000227;28;20403;-50
2022/03/15 11:48:44;;;;;;;9.13;4.63;;;;;;;;;;4999972;28;20421;-53
2022/03/15 11:51:23;;;;;;;7.83;4.10;;;;;;;;;;5000757;28;20463;-49
2022/03/15 11:53:55;;;;;;;11.17;4.73;;;;;;;;;;4999677;28;20502;-49
2022/03/15 11:56:42;;;;;;;7.83;5.27;;;;;;;;;;5000530;28;21080;-50
2022/03/15 11:59:08;;;;;;;7.00;4.63;;;;;;;;;;5001682;28;20415;-49
2022/03/15 12:01:48;;;;;;;9.53;4.40;;;;;;;;;;5001179;28;20437;-49
2022/03/15 12:04:15;;;;;;;6.47;4.20;;;;;;;;;;5002146;28;20973;-47
2022/03/15 12:07:07;;;;;;;6.90;4.77;;;;;;;;;;5000571;28;20471;-49
2022/03/15 12:09:34;;;;;;;5.90;4.93;;;;;;;;;;4996865;28;20475;-49
2022/03/15 12:12:07;;;;;;;10.93;5.20;;;;;;;;;;5000005;28;20432;-47
2022/03/15 12:14:41;;;;;;;6.03;5.40;;;;;;;;;;5000563;28;20490;-50
2022/03/15 12:17:08;;;;;;;11.17;5.50;;;;;;;;;;5000518;28;20443;-50
2022/03/15 12:19:43;;;;;;;8.97;4.87;;;;;;;;;;5000206;28;20462;-49
2022/03/15 12:22:11;;;;;;;7.47;4.67;;;;;;;;;;4999579;28;20427;-48
2022/03/15 12:24:46;;;;;;;10.83;5.03;;;;;;;;;;4999911;28;20535;-49
2022/03/15 12:27:16;;;;;;;8.87;5.27;;;;;;;;;;5000550;28;20421;-49
2022/03/15 12:29:52;;;;;;;8.80;4.70;;;;;;;;;;4998575;28;20433;-49
2022/03/15 12:32:18;;;;;;;6.60;4.30;;;;;;;;;;5000435;28;20523;-48
2022/03/15 12:34:46;;;;;;;8.10;4.13;;;;;;;;;;5000642;28;20421;-50
2022/03/15 12:37:12;;;;;;;4.20;3.67;;;;;;;;;;4999883;28;20399;-49
2022/03/15 12:39:38;;;;;;;6.43;3.30;;;;;;;;;;4998867;28;20457;-49
2022/03/15 12:42:12;;;;;;;4.73;3.93;;;;;;;;;;4999965;28;20521;-52
2022/03/15 12:44:42;;;;;;;6.30;3.50;;;;;;;;;;5000379;28;20419;-50
2022/03/15 12:47:09;;;;;;;6.17;3.33;;;;;;;;;;4999140;28;20409;-50
2022/03/15 12:49:35;;;;;;;3.90;3.43;;;;;;;;;;4999466;28;20767;-49
2022/03/15 12:52:11;;;;;;;3.97;3.30;;;;;;;;;;4999124;28;20460;-50
2022/03/15 12:54:37;;;;;;;6.73;3.50;;;;;;;;;;4999571;28;20458;-48
2022/03/15 12:57:11;;;;;;;7.67;3.83;;;;;;;;;;4999266;28;20415;-48
2022/03/15 12:59:37;;;;;;;5.80;4.20;;;;;;;;;;4999764;28;20475;-54
2022/03/15 13:02:04;;;;;;;5.27;3.67;;;;;;;;;;4999099;28;20761;-50
2022/03/15 13:04:32;;;;;;;6.30;3.97;;;;;;;;;;4982427;28;20423;-49
2022/03/15 13:07:04;;;;;;;8.60;3.57;;;;;;;;;;4999377;28;20931;-49
2022/03/15 13:09:31;;;;;;;5.83;3.60;;;;;;;;;;4999818;28;20483;-48
2022/03/15 13:11:57;;;;;;;4.93;3.97;;;;;;;;;;4998794;28;20433;-49
2022/03/15 13:14:27;;;;;;;5.40;3.50;;;;;;;;;;4998735;28;20956;-49
2022/03/15 13:16:54;;;;;;;3.70;3.40;;;;;;;;;;4981021;28;20787;-49
2022/03/15 13:19:26;;;;;;;9.10;3.83;;;;;;;;;;4999531;28;20423;-48
2022/03/15 13:21:52;;;;;;;6.93;4.07;;;;;;;;;;4998739;28;20435;-48
2022/03/15 13:24:23;;;;;;;4.97;3.87;;;;;;;;;;4999894;28;20414;-48
2022/03/15 13:26:50;;;;;;;5.17;3.90;;;;;;;;;;4998764;28;20978;-50
2022/03/15 13:29:16;;;;;;;7.40;3.83;;;;;;;;;;4999300;28;20424;-51
2022/03/15 13:31:43;;;;;;;4.00;3.37;;;;;;;;;;4998958;28;20435;-49
2022/03/15 13:34:13;;;;;;;3.80;3.00;;;;;;;;;;5000603;28;20458;-47
2022/03/15 13:36:39;;;;;;;4.60;4.07;;;;;;;;;;5001904;28;20500;-49
2022/03/15 13:39:08;;;;;;;3.90;3.60;;;;;;;;;;5001924;28;20411;-49
2022/03/15 13:41:42;;;;;;;4.20;3.80;;;;;;;;;;5002471;28;20423;-48
2022/03/15 13:44:14;;;;;;;4.40;3.07;;;;;;;;;;5001197;28;20397;-55
2022/03/15 13:46:40;;;;;;;3.17;2.80;;;;;;;;;;5001964;28;20460;-49
2022/03/15 13:49:07;;;;;;;4.50;2.67;;;;;;;;;;5001630;28;20887;-50
2022/03/15 13:51:39;;;;;;;9.70;3.30;;;;;;;;;;5009981;28;20492;-50
2022/03/15 13:54:07;;;;;;;3.67;2.47;;;;;;;;;;5003469;28;20460;-49
2022/03/15 13:56:53;;;;;;;4.33;2.70;;;;;;;;;;5013174;28;20417;-50
2022/03/15 13:59:21;;;;;;;5.47;3.20;;;;;;;;;;5002025;28;20887;-50
2022/03/15 14:01:51;;;;;;;3.90;2.90;;;;;;;;;;5001956;28;21021;-51
2022/03/15 14:04:18;;;;;;;3.73;3.10;;;;;;;;;;5010431;28;20585;-48
2022/03/15 14:06:45;;;;;;;3.53;2.93;;;;;;;;;;5014339;28;20389;-51
2022/03/15 14:09:22;;;;;;;3.13;2.93;;;;;;;;;;5013349;28;20440;-50
2022/03/15 14:11:49;;;;;;;4.63;3.50;;;;;;;;;;5013781;28;20966;-51
2022/03/15 14:14:22;;;;;;;5.83;4.03;;;;;;;;;;5012785;28;20456;-50
2022/03/15 14:16:50;;;;;;;4.17;3.17;;;;;;;;;;5013921;28;20939;-49
2022/03/15 14:19:18;;;;;;;4.70;3.30;;;;;;;;;;5012918;28;20418;-50
2022/03/15 14:21:46;;;;;;;4.47;4.07;;;;;;;;;;5000478;28;20439;-49
2022/03/15 14:24:24;;;;;;;4.27;3.03;;;;;;;;;;4999929;28;20416;-50
2022/03/15 14:26:54;;;;;;;4.03;3.10;;;;;;;;;;5003814;28;20442;-49
2022/03/15 14:29:21;;;;;;;6.20;3.67;;;;;;;;;;5011109;28;20793;-50
2022/03/15 14:31:58;;;;;;;3.40;3.10;;;;;;;;;;5013967;28;20887;-47
2022/03/15 14:34:24;;;;;;;6.07;3.10;;;;;;;;;;5014230;28;20462;-47